Time;durP1;ratioP1;P1;durP2;ratioP2;P2;SDS_P1;SDS_P2;PMS_P1;PMS_P2;Temp;Humidity;BMP_temperature;BMP_pressure;BME280_temperature;BME280_humidity;BME280_pressure;Samples;Min_cycle;Max_cycle;Signal;HPM_P1;HPM_P2
2023/08/13 00:01:54;;;;;;;2.73;2.53;;;20.00;99.90;;;;;;5092304;28;20472;-95
2023/08/13 00:04:22;;;;;;;3.70;3.30;;;20.00;99.90;;;;;;5092236;28;20455;-93
2023/08/13 00:06:49;;;;;;;3.20;2.70;;;19.90;99.90;;;;;;5089212;28;21119;-93
2023/08/13 00:09:16;;;;;;;4.73;3.40;;;20.00;99.90;;;;;;5088637;28;20503;-94
2023/08/13 00:11:42;;;;;;;2.97;2.73;;;20.00;99.90;;;;;;5090220;28;21531;-94
2023/08/13 00:14:09;;;;;;;2.97;2.77;;;19.90;99.90;;;;;;5092397;28;20466;-92
2023/08/13 00:16:36;;;;;;;3.07;2.83;;;19.90;99.90;;;;;;5091078;28;20498;-94
2023/08/13 00:19:04;;;;;;;4.43;2.70;;;19.90;99.90;;;;;;5088531;28;20450;-94
2023/08/13 00:21:32;;;;;;;3.10;2.80;;;19.90;99.90;;;;;;5088633;28;20499;-93
2023/08/13 00:23:59;;;;;;;3.17;2.87;;;19.90;99.90;;;;;;5092080;28;20447;-93
2023/08/13 00:26:26;;;;;;;3.00;2.80;;;19.80;99.90;;;;;;5091781;28;20505;-94
2023/08/13 00:28:53;;;;;;;3.03;2.73;;;19.80;99.90;;;;;;5088788;28;20474;-94
2023/08/13 00:31:20;;;;;;;3.27;2.97;;;19.80;99.90;;;;;;5088091;28;20524;-94
2023/08/13 00:33:46;;;;;;;3.23;2.93;;;19.80;99.90;;;;;;5090343;28;20497;-94
2023/08/13 00:36:13;;;;;;;2.60;2.40;;;19.80;99.90;;;;;;5091427;28;20446;-93
2023/08/13 00:38:41;;;;;;;2.97;2.77;;;19.70;99.90;;;;;;5090354;28;20476;-92
2023/08/13 00:41:09;;;;;;;2.70;2.50;;;19.70;99.90;;;;;;5088171;28;20581;-93
2023/08/13 00:43:36;;;;;;;2.67;2.47;;;19.70;99.90;;;;;;5088758;28;20517;-95
2023/08/13 00:46:04;;;;;;;3.53;3.23;;;19.80;99.90;;;;;;5091469;28;20434;-94
2023/08/13 00:48:31;;;;;;;3.07;2.60;;;19.70;99.90;;;;;;5083638;28;20452;-94
2023/08/13 00:50:59;;;;;;;2.80;2.60;;;19.70;99.90;;;;;;5087817;28;20517;-95
2023/08/13 00:53:26;;;;;;;2.80;2.60;;;19.60;99.90;;;;;;5087902;28;20441;-93
2023/08/13 00:55:55;;;;;;;2.83;2.57;;;19.60;99.90;;;;;;5090464;28;20478;-94
2023/08/13 00:58:22;;;;;;;3.07;2.87;;;19.60;99.90;;;;;;5091073;28;20495;-95
2023/08/13 01:00:49;;;;;;;3.90;3.03;;;19.50;99.90;;;;;;5088792;28;20464;-94
2023/08/13 01:03:16;;;;;;;3.17;2.83;;;19.40;99.90;;;;;;5087763;28;20489;-94
2023/08/13 01:05:54;;;;;;;4.40;3.10;;;19.40;99.90;;;;;;5088964;28;20446;-94
2023/08/13 01:08:29;;;;;;;3.37;3.00;;;19.40;99.90;;;;;;5091093;28;20452;-94
2023/08/13 01:11:05;;;;;;;3.37;3.13;;;19.40;99.90;;;;;;5086792;28;20492;-93
2023/08/13 01:13:34;;;;;;;2.80;2.53;;;19.30;99.90;;;;;;5087544;28;20454;-94
2023/08/13 01:16:03;;;;;;;3.10;2.80;;;19.30;99.90;;;;;;5083080;28;20492;-93
2023/08/13 01:18:31;;;;;;;3.20;2.70;;;19.30;99.90;;;;;;5090854;28;20532;-94
2023/08/13 01:20:57;;;;;;;3.30;2.57;;;19.30;99.90;;;;;;5091046;28;20518;-94
2023/08/13 01:23:26;;;;;;;2.80;2.50;;;19.20;99.90;;;;;;5090883;28;20543;-93
2023/08/13 01:25:57;;;;;;;2.60;2.40;;;19.20;99.90;;;;;;5091189;28;20447;-93
2023/08/13 01:28:33;;;;;;;3.00;2.70;;;19.10;99.90;;;;;;5084353;28;20556;-93
2023/08/13 01:31:06;;;;;;;3.30;2.43;;;19.10;99.90;;;;;;5090306;28;20505;-93
2023/08/13 01:33:36;;;;;;;3.27;2.97;;;19.00;99.90;;;;;;5090770;28;20458;-94
2023/08/13 01:36:05;;;;;;;2.93;2.73;;;19.00;99.90;;;;;;5079083;28;20447;-93
2023/08/13 01:38:34;;;;;;;2.47;2.27;;;19.00;99.90;;;;;;5086938;28;20469;-93
2023/08/13 01:41:03;;;;;;;4.40;2.47;;;19.00;99.90;;;;;;5090274;28;20479;-93
2023/08/13 01:43:30;;;;;;;3.00;2.70;;;18.90;99.90;;;;;;5099203;28;20454;-93
2023/08/13 01:45:57;;;;;;;3.53;3.00;;;18.90;99.90;;;;;;5088087;28;20479;-94
2023/08/13 01:48:24;;;;;;;3.27;2.97;;;18.80;99.90;;;;;;5086686;28;20511;-93
2023/08/13 01:50:50;;;;;;;3.50;3.20;;;18.90;99.90;;;;;;5088118;28;20518;-94
2023/08/13 01:53:17;;;;;;;2.70;2.50;;;18.80;99.90;;;;;;5090109;28;20489;-94
2023/08/13 01:55:46;;;;;;;3.60;2.67;;;18.80;99.90;;;;;;5089746;28;20441;-93
2023/08/13 01:58:13;;;;;;;2.60;2.20;;;18.80;99.90;;;;;;5086653;28;20477;-92
2023/08/13 02:00:39;;;;;;;3.70;2.63;;;18.70;99.90;;;;;;5086548;28;20442;-93
2023/08/13 02:03:10;;;;;;;3.40;2.40;;;18.70;99.90;;;;;;5090208;28;20476;-93
2023/08/13 02:05:37;;;;;;;2.87;2.67;;;18.70;99.90;;;;;;5090198;28;20460;-93
2023/08/13 02:08:04;;;;;;;3.73;2.80;;;18.70;99.90;;;;;;5090182;28;20512;-94
2023/08/13 02:10:40;;;;;;;2.37;2.20;;;18.70;99.90;;;;;;5089963;28;20448;-93
2023/08/13 02:13:08;;;;;;;2.30;2.10;;;18.70;99.90;;;;;;5086738;28;20470;-95
2023/08/13 02:15:35;;;;;;;3.10;2.80;;;18.70;99.90;;;;;;5086525;28;20526;-92
2023/08/13 02:18:02;;;;;;;3.10;2.80;;;18.70;99.90;;;;;;5089123;28;20483;-93
2023/08/13 02:20:29;;;;;;;3.03;2.73;;;18.70;99.90;;;;;;5089751;28;20445;-93
2023/08/13 02:22:56;;;;;;;2.53;2.33;;;18.70;99.90;;;;;;5087198;28;20540;-93
2023/08/13 02:25:22;;;;;;;3.10;2.80;;;18.70;99.90;;;;;;5083643;28;20463;-94
2023/08/13 02:27:49;;;;;;;2.80;2.57;;;18.70;99.90;;;;;;5089470;28;20512;-93
2023/08/13 02:30:17;;;;;;;4.70;2.93;;;18.70;99.90;;;;;;5089281;28;20444;-94
2023/08/13 02:32:44;;;;;;;7.13;3.20;;;18.70;99.90;;;;;;5089193;28;20510;-95
2023/08/13 02:35:11;;;;;;;2.70;2.50;;;18.70;99.90;;;;;;5086192;28;20522;-93
2023/08/13 02:37:38;;;;;;;2.50;2.30;;;18.70;99.90;;;;;;5085929;28;20554;-95
2023/08/13 02:40:06;;;;;;;4.50;2.67;;;18.70;99.90;;;;;;5088800;28;20454;-94
2023/08/13 02:42:33;;;;;;;3.03;2.80;;;18.70;99.90;;;;;;5089102;28;20456;-93
2023/08/13 02:45:00;;;;;;;3.73;3.33;;;18.70;99.90;;;;;;5088564;28;20524;-94
2023/08/13 02:47:28;;;;;;;3.33;2.93;;;18.80;99.90;;;;;;5088381;28;20464;-93
2023/08/13 02:49:55;;;;;;;3.00;2.80;;;18.80;99.90;;;;;;5087015;28;20512;-93
2023/08/13 02:52:22;;;;;;;3.83;3.03;;;18.80;99.90;;;;;;5084679;28;20549;-94
2023/08/13 02:54:49;;;;;;;3.00;2.80;;;18.80;99.90;;;;;;5085699;28;20449;-93
2023/08/13 02:57:15;;;;;;;3.97;3.67;;;18.80;99.90;;;;;;5088401;28;20445;-93
2023/08/13 02:59:42;;;;;;;3.00;2.70;;;18.90;99.90;;;;;;5088681;28;20457;-93
2023/08/13 03:02:09;;;;;;;3.33;2.90;;;18.90;99.90;;;;;;5085405;28;20527;-92
2023/08/13 03:04:37;;;;;;;4.77;3.20;;;18.90;99.90;;;;;;5084729;28;20504;-94
2023/08/13 03:07:04;;;;;;;3.30;3.00;;;18.90;99.90;;;;;;5087359;28;20486;-93
2023/08/13 03:09:31;;;;;;;3.20;2.90;;;18.90;99.90;;;;;;5087453;28;20481;-92
2023/08/13 03:11:58;;;;;;;3.00;2.70;;;18.80;99.90;;;;;;5086272;28;20475;-93
2023/08/13 03:14:25;;;;;;;3.30;3.00;;;18.80;99.90;;;;;;5084576;28;20528;-93
2023/08/13 03:16:51;;;;;;;4.63;3.67;;;18.90;99.90;;;;;;5085371;28;20533;-93
2023/08/13 03:19:18;;;;;;;3.03;2.67;;;18.90;99.90;;;;;;5087497;28;20448;-95
2023/08/13 03:21:46;;;;;;;3.53;3.23;;;18.90;99.90;;;;;;5088026;28;20469;-93
2023/08/13 03:24:13;;;;;;;3.73;3.30;;;18.90;99.90;;;;;;5084400;28;20442;-93
2023/08/13 03:26:40;;;;;;;3.30;3.00;;;18.90;99.90;;;;;;5084411;28;20445;-94
2023/08/13 03:29:07;;;;;;;3.03;2.83;;;18.90;99.90;;;;;;5086805;28;20446;-93
2023/08/13 03:31:33;;;;;;;4.80;3.53;;;18.90;99.90;;;;;;5088260;28;20486;-94
2023/08/13 03:34:00;;;;;;;3.10;2.83;;;18.90;99.90;;;;;;5085675;28;20482;-94
2023/08/13 03:36:27;;;;;;;2.90;2.70;;;18.90;99.90;;;;;;5084763;28;20528;-92
2023/08/13 03:38:55;;;;;;;4.40;2.80;;;18.90;99.90;;;;;;5084982;28;20476;-93
2023/08/13 03:41:22;;;;;;;3.10;2.67;;;18.90;99.90;;;;;;5088238;28;20551;-94
2023/08/13 03:43:48;;;;;;;3.37;2.50;;;18.90;99.90;;;;;;5080098;28;20439;-95
2023/08/13 03:46:15;;;;;;;3.23;2.93;;;18.90;99.90;;;;;;5076297;28;20514;-95
2023/08/13 03:48:42;;;;;;;3.47;3.17;;;18.90;99.90;;;;;;5084672;28;20533;-95
2023/08/13 03:51:09;;;;;;;3.87;3.43;;;19.00;99.90;;;;;;5087267;28;20446;-94
2023/08/13 03:53:36;;;;;;;3.47;3.17;;;19.00;99.90;;;;;;5088306;28;20466;-95
2023/08/13 03:56:07;;;;;;;3.60;3.30;;;19.00;99.90;;;;;;5086687;28;20482;-95
2023/08/13 03:58:35;;;;;;;4.97;2.90;;;19.00;99.90;;;;;;5084491;28;20533;-94
2023/08/13 04:01:05;;;;;;;3.93;2.80;;;19.00;99.90;;;;;;5084650;28;20452;-94
2023/08/13 04:03:31;;;;;;;3.50;3.20;;;19.00;99.90;;;;;;5084843;28;20439;-95
2023/08/13 04:05:58;;;;;;;2.93;2.73;;;19.00;99.90;;;;;;5085281;28;20516;-94
2023/08/13 04:08:25;;;;;;;3.50;3.20;;;19.00;99.90;;;;;;5087933;28;20580;-94
2023/08/13 04:10:53;;;;;;;3.07;2.77;;;19.00;99.90;;;;;;5087725;28;20456;-95
2023/08/13 04:13:21;;;;;;;3.57;3.27;;;19.00;99.90;;;;;;5124108;22;20489;-71
2023/08/13 04:15:48;;;;;;;2.70;2.50;;;19.00;99.90;;;;;;5049630;28;20453;-72
2023/08/13 04:18:15;;;;;;;3.27;2.97;;;19.00;99.90;;;;;;5049421;28;20484;-71
2023/08/13 04:20:41;;;;;;;2.93;2.73;;;19.00;99.90;;;;;;5049429;28;20457;-71
2023/08/13 04:23:08;;;;;;;5.77;3.10;;;19.00;99.90;;;;;;5049587;28;20463;-71
2023/08/13 04:25:35;;;;;;;3.40;3.10;;;19.00;99.90;;;;;;5049767;28;20461;-72
2023/08/13 04:28:03;;;;;;;3.63;3.30;;;19.00;99.90;;;;;;5048178;28;20457;-71
2023/08/13 04:30:31;;;;;;;3.63;3.00;;;19.00;99.90;;;;;;5049419;28;20460;-72
2023/08/13 04:32:58;;;;;;;2.80;2.60;;;19.00;99.90;;;;;;5049339;28;20802;-71
2023/08/13 04:35:25;;;;;;;2.60;2.40;;;19.00;99.90;;;;;;5049876;28;20458;-71
2023/08/13 04:37:53;;;;;;;3.20;2.90;;;19.10;99.90;;;;;;5049272;28;20849;-72
2023/08/13 04:40:20;;;;;;;3.90;3.60;;;19.10;99.90;;;;;;5049278;28;20799;-71
2023/08/13 04:42:46;;;;;;;3.00;2.80;;;19.10;99.90;;;;;;5049344;28;20457;-71
2023/08/13 04:45:15;;;;;;;3.10;2.90;;;19.10;99.90;;;;;;5050284;28;20464;-72
2023/08/13 04:47:43;;;;;;;3.20;2.90;;;19.10;99.90;;;;;;5053029;28;20546;-71
2023/08/13 04:50:10;;;;;;;3.07;2.77;;;19.10;99.90;;;;;;5052518;28;20481;-71
2023/08/13 04:52:37;;;;;;;3.43;3.13;;;19.10;99.90;;;;;;5053333;28;20461;-71
2023/08/13 04:55:04;;;;;;;4.30;3.10;;;19.10;99.90;;;;;;5052780;28;20460;-72
2023/08/13 04:57:31;;;;;;;3.27;2.97;;;19.10;99.90;;;;;;5052900;28;20972;-71
2023/08/13 04:59:58;;;;;;;4.20;2.97;;;19.10;99.90;;;;;;5052112;28;20482;-71
2023/08/13 05:02:25;;;;;;;2.93;2.73;;;19.10;99.90;;;;;;5053021;28;20463;-71
2023/08/13 05:04:53;;;;;;;3.77;2.90;;;19.20;99.90;;;;;;5052807;28;20461;-71
2023/08/13 05:07:20;;;;;;;3.90;3.40;;;19.20;99.90;;;;;;5052601;28;20831;-71
2023/08/13 05:09:47;;;;;;;3.40;3.10;;;19.20;99.90;;;;;;5052360;28;20878;-71
2023/08/13 05:12:14;;;;;;;3.20;2.90;;;19.20;99.90;;;;;;5052703;28;20497;-71
2023/08/13 05:14:41;;;;;;;4.97;4.10;;;19.20;99.90;;;;;;5052635;28;20843;-71
2023/08/13 05:17:17;;;;;;;4.07;2.83;;;19.20;99.90;;;;;;5052361;28;20468;-71
2023/08/13 05:19:44;;;;;;;3.20;2.80;;;19.20;99.90;;;;;;5052175;28;20551;-71
2023/08/13 05:22:12;;;;;;;3.10;2.87;;;19.20;99.90;;;;;;5052584;28;20488;-71
2023/08/13 05:24:39;;;;;;;3.20;2.90;;;19.20;99.90;;;;;;5052590;28;20460;-71
2023/08/13 05:27:06;;;;;;;4.00;3.70;;;19.20;99.90;;;;;;5052249;28;20461;-72
2023/08/13 05:29:32;;;;;;;3.33;2.80;;;19.20;99.90;;;;;;5052044;28;20478;-72
2023/08/13 05:31:59;;;;;;;3.87;3.57;;;19.20;99.90;;;;;;5052368;28;20460;-72
2023/08/13 05:34:26;;;;;;;5.13;3.03;;;19.30;99.90;;;;;;5024533;28;20461;-71
2023/08/13 05:36:52;;;;;;;3.70;3.40;;;19.30;99.90;;;;;;5032028;28;20945;-71
2023/08/13 05:39:22;;;;;;;3.70;3.30;;;19.30;99.90;;;;;;5031820;28;20488;-72
2023/08/13 05:41:49;;;;;;;3.57;3.27;;;19.30;99.90;;;;;;5032253;28;20905;-71
2023/08/13 05:44:15;;;;;;;4.20;3.90;;;19.30;99.90;;;;;;5031987;28;20462;-72
2023/08/13 05:46:42;;;;;;;7.77;3.17;;;19.30;99.90;;;;;;5032039;28;20464;-72
2023/08/13 05:49:09;;;;;;;3.20;2.90;;;19.30;99.90;;;;;;5031512;28;20474;-71
2023/08/13 05:51:35;;;;;;;4.07;3.13;;;19.30;99.90;;;;;;5032219;28;20463;-71
2023/08/13 05:54:02;;;;;;;3.97;3.17;;;19.40;99.90;;;;;;5031944;28;20947;-71
2023/08/13 05:56:30;;;;;;;3.63;3.33;;;19.40;99.90;;;;;;5035367;28;20821;-72
2023/08/13 05:58:57;;;;;;;3.13;2.90;;;19.40;99.90;;;;;;5051188;28;20491;-71
2023/08/13 06:01:24;;;;;;;3.67;3.37;;;19.40;99.90;;;;;;5051797;28;20488;-71
2023/08/13 06:03:50;;;;;;;5.03;4.57;;;19.40;99.90;;;;;;5051637;28;20461;-71
2023/08/13 06:06:18;;;;;;;4.27;3.57;;;19.40;99.90;;;;;;5051553;28;20960;-72
2023/08/13 06:08:45;;;;;;;3.93;3.60;;;19.40;99.90;;;;;;5051145;28;20481;-71
2023/08/13 06:11:12;;;;;;;3.50;3.20;;;19.40;99.90;;;;;;5051513;28;20458;-71
2023/08/13 06:13:40;;;;;;;3.73;3.43;;;19.50;99.90;;;;;;5051461;28;20842;-71
2023/08/13 06:16:07;;;;;;;4.83;3.67;;;19.50;99.90;;;;;;5051314;28;20453;-71
2023/08/13 06:18:35;;;;;;;3.73;3.43;;;19.50;99.90;;;;;;5051033;28;20484;-71
2023/08/13 06:21:03;;;;;;;4.80;3.50;;;19.50;99.90;;;;;;5051433;28;20460;-72
2023/08/13 06:23:30;;;;;;;4.97;4.13;;;19.50;99.90;;;;;;5051569;28;20825;-72
2023/08/13 06:25:57;;;;;;;4.60;3.80;;;19.60;99.90;;;;;;5051238;28;20465;-71
2023/08/13 06:28:23;;;;;;;4.13;3.77;;;19.60;99.90;;;;;;5050885;28;20488;-72
2023/08/13 06:30:51;;;;;;;4.17;3.77;;;19.60;99.90;;;;;;5050847;28;20464;-72
2023/08/13 06:33:19;;;;;;;5.57;3.50;;;19.60;99.90;;;;;;5051182;28;20461;-72
2023/08/13 06:35:46;;;;;;;3.70;3.37;;;19.60;99.90;;;;;;5051227;28;20489;-72
2023/08/13 06:38:13;;;;;;;5.13;3.67;;;19.60;99.90;;;;;;5050677;28;20459;-71
2023/08/13 06:40:39;;;;;;;4.60;3.10;;;19.70;99.90;;;;;;5050733;28;20487;-72
2023/08/13 06:43:07;;;;;;;4.13;3.83;;;19.70;99.90;;;;;;5050939;28;20470;-71
2023/08/13 06:45:33;;;;;;;4.23;3.77;;;19.70;99.90;;;;;;5023231;28;20459;-71
2023/08/13 06:48:04;;;;;;;3.93;3.53;;;19.70;99.90;;;;;;5030858;28;20461;-71
2023/08/13 06:50:32;;;;;;;3.47;3.27;;;19.70;99.90;;;;;;5030689;28;20455;-71
2023/08/13 06:52:59;;;;;;;6.60;4.63;;;19.70;99.90;;;;;;5030749;28;20455;-71
2023/08/13 06:55:26;;;;;;;3.70;3.40;;;19.70;99.90;;;;;;5030897;28;20825;-71
2023/08/13 06:57:53;;;;;;;4.70;4.27;;;19.70;99.90;;;;;;5030505;28;20462;-71
2023/08/13 07:00:20;;;;;;;4.77;4.27;;;19.80;99.90;;;;;;5030270;28;20499;-71
2023/08/13 07:02:46;;;;;;;4.47;4.07;;;19.80;99.90;;;;;;5030777;28;20551;-72
2023/08/13 07:05:16;;;;;;;4.40;3.93;;;19.80;99.90;;;;;;5030469;28;20465;-72
2023/08/13 07:07:43;;;;;;;4.60;4.17;;;19.80;99.90;;;;;;5030545;28;20468;-72
2023/08/13 07:10:10;;;;;;;4.03;3.63;;;19.80;99.90;;;;;;5029168;28;20883;-72
2023/08/13 07:12:37;;;;;;;4.37;3.70;;;19.80;99.90;;;;;;5030607;28;20468;-72
2023/08/13 07:15:04;;;;;;;4.03;3.60;;;19.90;99.90;;;;;;5037943;28;20941;-71
2023/08/13 07:17:31;;;;;;;3.63;3.33;;;19.90;99.90;;;;;;5050326;28;20470;-71
2023/08/13 07:19:58;;;;;;;3.87;3.57;;;19.90;99.90;;;;;;5049893;28;20501;-72
2023/08/13 07:22:26;;;;;;;4.10;3.23;;;19.90;99.90;;;;;;5050270;28;20459;-71
2023/08/13 07:24:53;;;;;;;4.10;3.63;;;19.90;99.90;;;;;;5050167;28;20553;-71
2023/08/13 07:27:20;;;;;;;3.90;3.60;;;19.90;99.90;;;;;;5050093;28;20465;-71
2023/08/13 07:29:47;;;;;;;4.37;3.97;;;20.00;99.90;;;;;;5049871;28;20893;-70
2023/08/13 07:32:13;;;;;;;4.23;3.83;;;20.00;99.90;;;;;;5033387;28;20459;-70
2023/08/13 07:34:40;;;;;;;3.67;3.07;;;20.00;99.90;;;;;;5030322;28;20460;-70
2023/08/13 07:37:07;;;;;;;4.20;3.20;;;20.00;99.90;;;;;;5029836;28;20463;-69
2023/08/13 07:39:35;;;;;;;5.97;3.83;;;20.00;99.90;;;;;;5029427;28;20486;-70
2023/08/13 07:42:03;;;;;;;3.97;3.67;;;20.00;99.90;;;;;;5030116;28;20460;-70
2023/08/13 07:44:29;;;;;;;3.60;3.30;;;20.00;99.90;;;;;;5032575;28;20462;-70
2023/08/13 07:46:58;;;;;;;3.87;3.50;;;20.10;99.90;;;;;;5049800;28;20453;-70
2023/08/13 07:49:26;;;;;;;3.63;3.30;;;20.20;99.90;;;;;;5046329;28;20484;-70
2023/08/13 07:51:52;;;;;;;5.30;3.60;;;20.20;99.90;;;;;;5047335;28;20470;-71
2023/08/13 07:54:20;;;;;;;3.80;3.50;;;20.30;99.90;;;;;;5046850;28;20469;-70
2023/08/13 07:56:49;;;;;;;7.13;3.33;;;20.40;99.90;;;;;;5047066;28;20983;-70
2023/08/13 07:59:15;;;;;;;4.07;3.20;;;20.50;99.90;;;;;;5046451;28;20548;-70
2023/08/13 08:01:43;;;;;;;3.50;2.90;;;20.60;99.90;;;;;;5047212;28;20574;-70
2023/08/13 08:04:09;;;;;;;3.30;3.10;;;20.70;99.90;;;;;;5047036;28;20469;-70
2023/08/13 08:06:37;;;;;;;3.93;3.60;;;20.80;99.90;;;;;;5046519;28;20473;-71
2023/08/13 08:09:05;;;;;;;4.00;3.63;;;20.70;99.90;;;;;;5046549;28;20889;-70
2023/08/13 08:11:31;;;;;;;4.63;4.13;;;20.80;99.90;;;;;;5046800;28;20974;-70
2023/08/13 08:14:00;;;;;;;4.97;3.57;;;20.80;99.90;;;;;;5047006;28;20825;-70
2023/08/13 08:16:26;;;;;;;3.83;3.53;;;20.90;99.90;;;;;;5046877;28;20464;-70
2023/08/13 08:18:53;;;;;;;3.70;3.30;;;20.90;99.90;;;;;;5047450;28;20514;-70
2023/08/13 08:21:20;;;;;;;4.20;3.77;;;20.90;99.90;;;;;;5042975;28;20486;-70
2023/08/13 08:23:47;;;;;;;4.03;3.63;;;20.90;99.90;;;;;;5033867;28;20456;-70
2023/08/13 08:26:14;;;;;;;6.17;3.70;;;20.90;99.90;;;;;;5033563;28;20828;-70
2023/08/13 08:28:40;;;;;;;4.17;3.77;;;20.90;99.90;;;;;;5033129;28;20483;-70
2023/08/13 08:31:08;;;;;;;3.57;3.27;;;21.00;99.90;;;;;;5049059;28;20459;-71
2023/08/13 08:33:35;;;;;;;4.37;3.77;;;21.00;99.90;;;;;;5053190;28;20459;-70
2023/08/13 08:36:02;;;;;;;3.90;3.60;;;21.10;99.90;;;;;;5039006;28;20498;-68
2023/08/13 08:38:29;;;;;;;3.60;3.30;;;21.10;99.90;;;;;;5051294;28;20483;-70
2023/08/13 08:40:58;;;;;;;3.03;2.80;;;21.10;99.90;;;;;;5053412;28;20479;-71
2023/08/13 08:43:27;;;;;;;4.07;3.67;;;21.10;99.90;;;;;;5053084;28;20462;-70
2023/08/13 08:45:55;;;;;;;4.43;3.20;;;21.10;99.90;;;;;;5053398;28;20843;-71
2023/08/13 08:48:25;;;;;;;4.43;4.07;;;21.10;99.90;;;;;;5052567;28;20472;-71
2023/08/13 08:50:52;;;;;;;3.80;3.50;;;21.20;99.90;;;;;;5053268;28;20459;-70
2023/08/13 08:53:19;;;;;;;4.13;3.80;;;21.20;99.90;;;;;;5052744;28;20468;-69
2023/08/13 08:55:47;;;;;;;3.87;3.20;;;21.20;99.90;;;;;;5053194;28;20455;-70
2023/08/13 08:58:14;;;;;;;4.13;3.50;;;21.20;99.90;;;;;;5039800;28;20584;-69
2023/08/13 09:00:41;;;;;;;3.53;3.23;;;21.20;99.90;;;;;;5036068;28;20484;-70
2023/08/13 09:03:08;;;;;;;4.13;3.43;;;21.20;99.90;;;;;;5032792;28;20480;-68
2023/08/13 09:05:38;;;;;;;4.00;3.50;;;21.20;99.90;;;;;;5032201;28;20467;-69
2023/08/13 09:08:10;;;;;;;2.83;2.63;;;21.30;99.90;;;;;;5032684;28;20460;-69
2023/08/13 09:10:37;;;;;;;3.70;3.40;;;21.40;99.90;;;;;;5032139;28;20461;-69
2023/08/13 09:13:04;;;;;;;3.40;3.10;;;21.40;99.90;;;;;;5032632;28;20474;-70
2023/08/13 09:15:31;;;;;;;3.83;3.50;;;21.40;99.90;;;;;;5034054;28;20464;-69
2023/08/13 09:17:59;;;;;;;3.60;3.30;;;21.50;99.90;;;;;;5052368;28;20958;-70
2023/08/13 09:20:26;;;;;;;3.87;3.53;;;21.60;99.90;;;;;;5052164;28;20488;-69
2023/08/13 09:22:54;;;;;;;6.50;4.53;;;21.80;99.90;;;;;;5052428;28;20463;-68
2023/08/13 09:25:21;;;;;;;4.10;3.70;;;21.90;99.90;;;;;;5044337;28;20472;-69
2023/08/13 09:27:48;;;;;;;4.27;3.93;;;22.00;99.90;;;;;;5044492;28;20960;-69
2023/08/13 09:30:27;;;;;;;8.23;4.10;;;22.20;99.90;;;;;;5051628;28;20542;-70
2023/08/13 09:32:56;;;;;;;3.30;2.93;;;22.40;99.90;;;;;;5050712;28;20465;-69
2023/08/13 09:35:22;;;;;;;6.90;4.00;;;22.70;99.90;;;;;;5051438;28;20465;-69
2023/08/13 09:37:49;;;;;;;4.13;3.73;;;22.90;99.90;;;;;;5051301;28;20464;-69
2023/08/13 09:40:17;;;;;;;4.53;3.50;;;23.10;99.90;;;;;;5051640;28;20480;-69
2023/08/13 09:42:46;;;;;;;4.20;3.80;;;23.20;99.90;;;;;;5040872;28;20462;-70
2023/08/13 09:45:17;;;;;;;4.27;3.80;;;23.20;99.90;;;;;;5032346;28;20464;-70
2023/08/13 09:47:46;;;;;;;3.87;3.43;;;23.30;99.90;;;;;;5032101;28;20465;-70
2023/08/13 09:50:13;;;;;;;3.33;3.03;;;23.30;99.90;;;;;;5031831;28;20476;-69
2023/08/13 09:52:43;;;;;;;3.83;3.53;;;23.30;99.90;;;;;;5034172;28;20466;-69
2023/08/13 09:55:13;;;;;;;4.00;3.60;;;23.30;99.90;;;;;;5052064;28;20571;-68
2023/08/13 09:57:43;;;;;;;4.00;3.60;;;23.40;99.90;;;;;;5051659;28;20466;-70
2023/08/13 10:00:12;;;;;;;4.87;3.87;;;23.40;99.90;;;;;;5051463;28;20508;-70
2023/08/13 10:02:39;;;;;;;4.13;3.60;;;23.60;99.90;;;;;;5051826;28;20468;-72
2023/08/13 10:05:07;;;;;;;3.80;3.50;;;24.00;99.90;;;;;;5038015;28;20455;-71
2023/08/13 10:07:35;;;;;;;4.33;3.17;;;24.20;99.90;;;;;;5031385;28;20466;-71
2023/08/13 10:10:03;;;;;;;3.77;3.47;;;24.30;99.90;;;;;;5031402;28;20479;-72
2023/08/13 10:15:01;;;;;;;3.10;2.87;;;24.80;99.90;;;;;;5027246;28;20480;-71
2023/08/13 10:17:28;;;;;;;3.43;3.13;;;25.00;99.90;;;;;;5031166;28;20829;-71
2023/08/13 10:19:56;;;;;;;3.77;3.47;;;25.20;99.90;;;;;;5035246;28;20487;-71
2023/08/13 10:22:32;;;;;;;3.33;3.03;;;25.30;99.90;;;;;;5051419;28;20845;-72
2023/08/13 10:25:00;;;;;;;4.23;2.90;;;25.40;99.90;;;;;;5051603;28;20536;-71
2023/08/13 10:27:27;;;;;;;7.40;3.67;;;25.50;99.90;;;;;;5051264;28;20513;-71
2023/08/13 10:30:07;;;;;;;4.80;3.60;;;25.40;99.90;;;;;;5046060;28;21027;-71
2023/08/13 10:32:40;;;;;;;5.47;3.00;;;25.40;99.90;;;;;;5048668;28;21028;-71
2023/08/13 10:35:26;;;;;;;3.20;2.90;;;25.30;99.90;;;;;;5050786;28;20467;-71
2023/08/13 10:37:54;;;;;;;3.47;3.10;;;25.50;99.90;;;;;;5050554;28;20459;-71
2023/08/13 10:40:21;;;;;;;3.57;3.20;;;25.60;99.90;;;;;;5050203;28;20479;-71
2023/08/13 10:42:50;;;;;;;3.50;3.17;;;25.90;99.90;;;;;;5050314;28;20464;-70
2023/08/13 10:45:19;;;;;;;3.33;3.03;;;26.20;99.90;;;;;;5050402;28;20455;-70
2023/08/13 10:47:48;;;;;;;4.13;3.20;;;26.40;99.90;;;;;;5050436;28;20466;-70
2023/08/13 10:50:33;;;;;;;3.50;3.20;;;26.50;99.90;;;;;;5050641;28;20555;-70
2023/08/13 10:53:08;;;;;;;3.60;3.27;;;26.40;99.90;;;;;;5050892;28;20455;-70
2023/08/13 10:55:38;;;;;;;4.03;3.30;;;26.40;99.90;;;;;;5050420;28;20843;-70
2023/08/13 10:58:05;;;;;;;3.40;2.93;;;26.40;99.90;;;;;;5050221;28;20452;-70
2023/08/13 11:00:43;;;;;;;3.10;2.83;;;26.50;99.90;;;;;;5049648;28;20856;-71
2023/08/13 11:03:18;;;;;;;3.70;3.40;;;26.50;99.90;;;;;;5050378;28;21028;-70
2023/08/13 11:05:45;;;;;;;3.00;2.80;;;26.50;99.90;;;;;;5049792;28;20592;-70
2023/08/13 11:08:16;;;;;;;3.00;2.80;;;26.60;99.90;;;;;;5049969;28;20470;-70
2023/08/13 11:10:43;;;;;;;3.67;3.37;;;26.80;99.90;;;;;;5049778;28;20456;-70
2023/08/13 11:13:11;;;;;;;4.23;3.10;;;27.00;99.90;;;;;;5050254;28;20467;-70
2023/08/13 11:15:39;;;;;;;4.10;2.80;;;26.80;99.90;;;;;;5050033;28;20467;-70
2023/08/13 11:18:06;;;;;;;4.00;3.60;;;26.60;99.90;;;;;;5049954;28;20460;-70
2023/08/13 11:20:34;;;;;;;3.30;3.00;;;26.40;99.90;;;;;;5049922;28;20483;-70
2023/08/13 11:23:04;;;;;;;3.27;2.97;;;26.20;99.90;;;;;;5050235;28;20838;-70
2023/08/13 11:25:31;;;;;;;3.23;2.93;;;26.20;99.90;;;;;;5049963;28;20464;-70
2023/08/13 11:28:00;;;;;;;3.73;2.93;;;26.10;99.90;;;;;;5049534;28;20583;-70
2023/08/13 11:30:27;;;;;;;3.53;3.23;;;26.10;99.90;;;;;;5049586;28;21653;-70
2023/08/13 11:32:55;;;;;;;3.43;3.13;;;25.90;99.90;;;;;;5050016;28;20464;-71
2023/08/13 11:35:22;;;;;;;3.50;3.20;;;25.80;99.90;;;;;;5049797;28;20995;-70
2023/08/13 11:37:48;;;;;;;4.30;3.63;;;25.60;99.90;;;;;;5049333;28;20468;-70
2023/08/13 11:40:17;;;;;;;3.17;2.87;;;25.60;99.90;;;;;;5049311;28;20844;-71
2023/08/13 11:42:55;;;;;;;3.50;3.20;;;25.70;99.90;;;;;;5049672;28;20995;-70
2023/08/13 11:45:23;;;;;;;3.53;3.23;;;25.80;99.90;;;;;;5049848;28;20475;-70
2023/08/13 11:47:50;;;;;;;3.50;3.13;;;25.90;99.90;;;;;;5049176;28;20546;-70
2023/08/13 11:50:23;;;;;;;3.30;3.00;;;25.90;99.90;;;;;;5049537;28;20479;-70
2023/08/13 11:53:08;;;;;;;3.90;2.90;;;25.90;99.90;;;;;;5049771;28;20467;-71
2023/08/13 11:55:35;;;;;;;6.20;3.17;;;25.90;99.90;;;;;;5051644;28;20459;-71
2023/08/13 11:58:04;;;;;;;3.43;3.10;;;25.70;99.90;;;;;;5053520;28;20464;-71
2023/08/13 12:00:31;;;;;;;3.37;3.07;;;25.50;99.90;;;;;;5053430;28;20483;-71
2023/08/13 12:02:58;;;;;;;3.50;3.20;;;25.30;99.90;;;;;;5053829;28;20494;-71
2023/08/13 12:05:28;;;;;;;3.30;3.10;;;25.20;99.90;;;;;;5028823;28;20498;-70
2023/08/13 12:07:56;;;;;;;3.80;3.40;;;25.10;99.90;;;;;;5033459;28;20476;-71
2023/08/13 12:10:23;;;;;;;3.30;3.00;;;24.90;99.90;;;;;;5033523;28;20465;-71
2023/08/13 12:12:50;;;;;;;3.27;2.97;;;24.80;99.90;;;;;;5035397;28;20576;-70
2023/08/13 12:15:21;;;;;;;4.93;3.20;;;24.80;99.90;;;;;;5053089;28;20471;-71
2023/08/13 12:17:48;;;;;;;4.70;4.00;;;24.70;99.90;;;;;;5052875;28;20464;-70
2023/08/13 12:20:14;;;;;;;3.23;3.00;;;24.70;99.90;;;;;;5052489;28;21001;-71
2023/08/13 12:22:42;;;;;;;3.53;3.23;;;24.90;99.90;;;;;;5053234;28;20471;-70
2023/08/13 12:25:09;;;;;;;3.00;2.77;;;25.10;99.90;;;;;;5053036;28;20963;-70
2023/08/13 12:27:36;;;;;;;6.73;3.23;;;25.30;99.90;;;;;;5052767;28;20835;-70
2023/08/13 12:30:14;;;;;;;3.37;3.07;;;25.60;99.90;;;;;;5052274;28;20503;-70
2023/08/13 12:32:41;;;;;;;3.50;3.17;;;25.80;99.90;;;;;;5053000;28;20536;-71
2023/08/13 12:35:09;;;;;;;3.50;3.20;;;26.00;99.90;;;;;;5053007;28;20460;-70
2023/08/13 12:37:36;;;;;;;3.53;2.77;;;26.10;99.90;;;;;;5053081;28;20529;-71
2023/08/13 12:40:09;;;;;;;4.17;3.87;;;26.00;99.90;;;;;;5052489;28;20483;-71
2023/08/13 12:42:35;;;;;;;3.10;2.80;;;25.80;99.90;;;;;;5043359;28;20476;-70
2023/08/13 12:45:03;;;;;;;3.30;3.00;;;25.80;99.90;;;;;;5044740;28;20467;-70
2023/08/13 12:47:30;;;;;;;2.90;2.70;;;25.80;99.90;;;;;;5032764;28;20467;-70
2023/08/13 12:49:57;;;;;;;3.10;2.80;;;25.80;99.90;;;;;;5032252;28;20491;-70
2023/08/13 12:52:24;;;;;;;4.27;2.60;;;25.80;99.90;;;;;;5032801;28;20461;-70
2023/08/13 12:54:51;;;;;;;2.70;2.50;;;25.80;99.90;;;;;;5033878;28;20467;-70